createdAt,value
2017-12-31T00:01:04.933Z,8.20
2017-12-31T00:03:32.584Z,8.20
2017-12-31T00:06:00.945Z,8.30
2017-12-31T00:08:28.550Z,8.30
2017-12-31T00:10:56.156Z,8.30
2017-12-31T00:13:23.789Z,8.30
2017-12-31T00:15:52.184Z,8.30
2017-12-31T00:18:19.776Z,8.30
2017-12-31T00:20:47.383Z,8.30
2017-12-31T00:23:15.746Z,8.40
2017-12-31T00:25:43.345Z,8.40
2017-12-31T00:28:10.956Z,8.30
2017-12-31T00:30:38.565Z,8.30
2017-12-31T00:33:06.159Z,8.30
2017-12-31T00:35:33.756Z,8.30
2017-12-31T00:38:01.358Z,8.40
2017-12-31T00:40:28.934Z,8.40
2017-12-31T00:42:56.545Z,8.40
2017-12-31T00:45:25.041Z,8.40
2017-12-31T00:47:52.677Z,8.40
2017-12-31T00:50:20.492Z,8.40
2017-12-31T00:52:48.133Z,8.40
2017-12-31T00:55:15.839Z,8.40
2017-12-31T00:57:43.440Z,8.40
2017-12-31T01:00:11.785Z,8.50
2017-12-31T01:02:39.386Z,8.50
2017-12-31T01:05:07.079Z,8.60
2017-12-31T01:07:34.703Z,8.60
2017-12-31T01:10:03.098Z,8.60
2017-12-31T01:12:30.701Z,8.60
2017-12-31T01:14:58.329Z,8.60
2017-12-31T01:17:25.929Z,8.60
2017-12-31T01:19:53.649Z,8.70
2017-12-31T01:22:21.234Z,8.60
2017-12-31T01:24:48.843Z,8.70
2017-12-31T01:27:17.250Z,8.70
2017-12-31T01:29:44.828Z,8.70
2017-12-31T01:32:12.424Z,8.80
2017-12-31T01:34:40.053Z,8.80
2017-12-31T01:37:07.675Z,8.80
2017-12-31T01:39:36.047Z,8.80
2017-12-31T01:42:04.478Z,8.90
2017-12-31T01:44:32.205Z,8.90
2017-12-31T01:46:59.791Z,8.80
2017-12-31T01:49:27.394Z,8.90
2017-12-31T01:51:54.981Z,8.90
2017-12-31T01:54:22.578Z,8.90
2017-12-31T01:56:50.184Z,8.90
2017-12-31T01:59:18.529Z,8.90
2017-12-31T02:01:46.137Z,8.80
2017-12-31T02:04:13.736Z,8.80
2017-12-31T02:06:41.461Z,8.80
2017-12-31T02:09:09.077Z,8.80
2017-12-31T02:11:36.690Z,8.80
2017-12-31T02:14:04.287Z,8.90
2017-12-31T02:16:31.884Z,8.90
2017-12-31T02:19:00.237Z,8.90
2017-12-31T02:21:27.836Z,8.90
2017-12-31T02:23:56.188Z,8.90
2017-12-31T02:26:23.793Z,8.90
2017-12-31T02:28:51.373Z,8.90
2017-12-31T02:31:18.964Z,8.90
2017-12-31T02:33:46.589Z,8.90
2017-12-31T02:36:14.250Z,8.90
2017-12-31T02:38:41.837Z,8.90
2017-12-31T02:41:09.449Z,9.00
2017-12-31T02:43:37.058Z,8.90
2017-12-31T02:46:04.670Z,8.90
2017-12-31T02:48:32.279Z,8.90
2017-12-31T02:50:59.877Z,9.00
2017-12-31T02:53:28.252Z,8.90
2017-12-31T02:55:56.789Z,9.00
2017-12-31T02:58:24.412Z,9.00
2017-12-31T03:00:52.045Z,9.00
2017-12-31T03:03:20.387Z,9.00
2017-12-31T03:05:48.793Z,9.00
2017-12-31T03:08:16.389Z,8.90
2017-12-31T03:10:43.985Z,9.00
2017-12-31T03:13:11.597Z,9.00
2017-12-31T03:15:39.948Z,9.00
2017-12-31T03:18:07.550Z,9.00
2017-12-31T03:20:35.222Z,8.90
2017-12-31T03:23:02.839Z,8.90
2017-12-31T03:25:30.420Z,8.90
2017-12-31T03:27:58.782Z,8.80
2017-12-31T03:30:27.218Z,8.80
2017-12-31T03:32:54.809Z,8.80
2017-12-31T03:35:22.389Z,8.80
2017-12-31T03:37:50.754Z,8.90
2017-12-31T03:40:18.376Z,8.80
2017-12-31T03:42:45.951Z,8.90
2017-12-31T03:45:13.552Z,8.90
2017-12-31T03:47:41.920Z,8.90
2017-12-31T03:50:10.282Z,8.90
2017-12-31T03:52:37.852Z,8.90
2017-12-31T03:55:05.445Z,8.90
2017-12-31T03:57:33.061Z,8.90
2017-12-31T04:00:00.675Z,8.90
2017-12-31T04:02:28.336Z,8.90
2017-12-31T04:04:55.926Z,9.00
2017-12-31T04:07:23.560Z,8.90
2017-12-31T04:09:51.177Z,8.90
2017-12-31T04:12:19.567Z,8.90
2017-12-31T04:14:47.897Z,9.00
2017-12-31T04:17:15.494Z,8.90
2017-12-31T04:19:43.842Z,9.00
2017-12-31T04:22:11.438Z,8.90
2017-12-31T04:24:39.799Z,8.90
2017-12-31T04:27:07.391Z,8.90
2017-12-31T04:29:35.748Z,8.90
2017-12-31T04:32:03.353Z,8.90
2017-12-31T04:34:30.960Z,8.90
2017-12-31T04:36:58.545Z,8.90
2017-12-31T04:39:26.120Z,8.80
2017-12-31T04:41:53.715Z,8.80
2017-12-31T04:44:21.302Z,8.80
2017-12-31T04:46:48.886Z,8.90
2017-12-31T04:49:17.240Z,8.90
2017-12-31T04:51:45.679Z,8.90
2017-12-31T04:54:13.259Z,8.90
2017-12-31T04:56:40.961Z,8.90
2017-12-31T04:59:09.361Z,8.90
2017-12-31T05:01:36.944Z,8.90
2017-12-31T05:04:04.548Z,8.90
2017-12-31T05:06:32.909Z,8.90
2017-12-31T05:09:00.530Z,8.90
2017-12-31T05:11:28.112Z,8.80
2017-12-31T05:13:55.697Z,8.90
2017-12-31T05:16:23.280Z,8.90
2017-12-31T05:18:51.637Z,8.90
2017-12-31T05:21:19.216Z,8.90
2017-12-31T05:23:47.601Z,9.00
2017-12-31T05:26:15.937Z,8.90
2017-12-31T05:28:43.520Z,8.90
2017-12-31T05:31:11.118Z,8.90
2017-12-31T05:33:38.756Z,8.90
2017-12-31T05:36:07.174Z,9.00
2017-12-31T05:38:34.745Z,9.00
2017-12-31T05:41:02.341Z,9.00
2017-12-31T05:43:29.912Z,9.10
2017-12-31T05:45:58.300Z,9.00
2017-12-31T05:48:26.640Z,9.10
2017-12-31T05:50:54.228Z,9.10
2017-12-31T05:53:22.589Z,9.10
2017-12-31T05:55:50.180Z,9.10
2017-12-31T05:58:17.773Z,9.10
2017-12-31T06:00:45.348Z,9.10
2017-12-31T06:03:12.942Z,9.10
2017-12-31T06:05:41.325Z,9.10
2017-12-31T06:08:09.726Z,9.00
2017-12-31T06:10:37.344Z,9.00
2017-12-31T06:13:04.947Z,9.00
2017-12-31T06:15:32.516Z,9.10
2017-12-31T06:18:00.124Z,9.10
2017-12-31T06:20:27.801Z,9.20
2017-12-31T06:22:56.185Z,9.10
2017-12-31T06:25:24.554Z,9.10
2017-12-31T06:27:52.934Z,9.10
2017-12-31T06:30:21.314Z,9.10
2017-12-31T06:32:49.712Z,9.10
2017-12-31T06:35:17.300Z,9.10
2017-12-31T06:37:44.896Z,9.20
2017-12-31T06:40:12.470Z,9.20
2017-12-31T06:42:40.833Z,9.20
2017-12-31T06:45:08.445Z,9.10
2017-12-31T06:47:36.038Z,9.20
2017-12-31T06:50:03.627Z,9.20
2017-12-31T06:52:32.012Z,9.20
2017-12-31T06:55:00.362Z,9.20
2017-12-31T06:57:27.932Z,9.20
2017-12-31T06:59:55.522Z,9.20
2017-12-31T07:02:23.954Z,9.20
2017-12-31T07:04:51.558Z,9.10
2017-12-31T07:07:19.890Z,9.10
2017-12-31T07:09:47.492Z,9.10
2017-12-31T07:12:15.892Z,9.10
2017-12-31T07:14:43.509Z,9.10
2017-12-31T07:17:11.104Z,9.10
2017-12-31T07:19:38.694Z,9.10
2017-12-31T07:22:06.305Z,9.10
2017-12-31T07:24:34.682Z,9.20
2017-12-31T07:27:03.029Z,9.20
2017-12-31T07:29:30.602Z,9.20
2017-12-31T07:31:58.208Z,9.20
2017-12-31T07:34:25.781Z,9.20
2017-12-31T07:36:53.384Z,9.20
2017-12-31T07:39:21.056Z,9.30
2017-12-31T07:41:48.648Z,9.30
2017-12-31T07:44:16.221Z,9.40
2017-12-31T07:46:43.907Z,9.40
2017-12-31T07:49:11.488Z,9.40
2017-12-31T07:51:39.119Z,9.40
2017-12-31T07:54:06.701Z,9.40
2017-12-31T07:56:34.278Z,9.40
2017-12-31T07:59:02.653Z,9.30
2017-12-31T08:01:30.402Z,9.30
2017-12-31T08:03:58.001Z,9.40
2017-12-31T08:06:26.361Z,9.50
2017-12-31T08:08:55.150Z,9.50
2017-12-31T08:11:22.737Z,9.40
2017-12-31T08:13:50.348Z,9.40
2017-12-31T08:16:17.933Z,9.50
2017-12-31T08:18:45.549Z,9.50
2017-12-31T08:21:13.137Z,9.50
2017-12-31T08:23:40.748Z,9.50
2017-12-31T08:26:08.369Z,9.50
2017-12-31T08:28:35.999Z,9.50
2017-12-31T08:31:03.570Z,9.40
2017-12-31T08:33:32.672Z,9.50
2017-12-31T08:36:00.265Z,9.50
2017-12-31T08:38:28.641Z,9.60
2017-12-31T08:40:57.025Z,9.60
2017-12-31T08:43:25.403Z,9.60
2017-12-31T08:45:53.005Z,9.50
2017-12-31T08:48:20.584Z,9.60
2017-12-31T08:50:48.188Z,9.60
2017-12-31T08:53:15.931Z,9.70
2017-12-31T08:55:44.731Z,9.80
2017-12-31T08:58:13.127Z,9.70
2017-12-31T09:00:40.764Z,9.70
2017-12-31T09:03:09.104Z,9.70
2017-12-31T09:05:36.777Z,9.70
2017-12-31T09:08:04.376Z,9.80
2017-12-31T09:10:32.839Z,9.80
2017-12-31T09:13:01.188Z,9.80
2017-12-31T09:15:28.771Z,9.80
2017-12-31T09:17:56.353Z,9.80
2017-12-31T09:20:24.708Z,9.90
2017-12-31T09:22:52.322Z,9.90
2017-12-31T09:25:19.938Z,9.90
2017-12-31T09:27:48.321Z,10.00
2017-12-31T09:30:16.681Z,10.00
2017-12-31T09:32:44.307Z,10.00
2017-12-31T09:35:11.953Z,10.00
2017-12-31T09:37:39.584Z,10.10
2017-12-31T09:40:07.935Z,10.20
2017-12-31T09:42:35.536Z,10.20
2017-12-31T09:45:03.184Z,10.30
2017-12-31T09:47:30.772Z,10.30
2017-12-31T09:49:58.505Z,10.20
2017-12-31T09:52:26.903Z,10.20
2017-12-31T09:54:54.645Z,10.20
2017-12-31T09:57:23.045Z,10.20
2017-12-31T09:59:50.650Z,10.20
2017-12-31T10:02:18.258Z,10.30
2017-12-31T10:04:46.702Z,10.30
2017-12-31T10:07:14.334Z,10.30
2017-12-31T10:09:41.933Z,10.40
2017-12-31T10:12:09.541Z,10.30
2017-12-31T10:14:37.140Z,10.20
2017-12-31T10:17:04.764Z,10.20
2017-12-31T10:19:32.682Z,10.10
2017-12-31T10:22:00.257Z,10.20
2017-12-31T10:24:28.666Z,10.20
2017-12-31T10:26:56.347Z,10.20
2017-12-31T10:29:23.960Z,10.20
2017-12-31T10:31:52.346Z,10.30
2017-12-31T10:34:20.760Z,10.30
2017-12-31T10:36:48.386Z,10.30
2017-12-31T10:39:16.774Z,10.40
2017-12-31T10:41:44.392Z,10.40
2017-12-31T10:44:11.983Z,10.40
2017-12-31T10:46:40.428Z,10.40
2017-12-31T10:49:08.017Z,10.40
2017-12-31T10:51:36.414Z,10.40
2017-12-31T10:54:04.017Z,10.40
2017-12-31T10:56:31.620Z,10.40
2017-12-31T10:58:59.987Z,10.50
2017-12-31T11:01:28.392Z,10.60
2017-12-31T11:03:56.009Z,10.60
2017-12-31T11:06:23.745Z,10.60
2017-12-31T11:08:51.352Z,10.60
2017-12-31T11:11:19.730Z,10.60
2017-12-31T11:13:48.142Z,10.50
2017-12-31T11:16:15.740Z,10.50
2017-12-31T11:18:43.341Z,10.50
2017-12-31T11:21:11.731Z,10.50
2017-12-31T11:23:39.360Z,10.40
2017-12-31T11:26:06.955Z,10.40
2017-12-31T11:28:34.670Z,10.40
2017-12-31T11:31:02.275Z,10.30
2017-12-31T11:33:29.939Z,10.30
2017-12-31T11:35:57.518Z,10.30
2017-12-31T11:38:25.110Z,10.30
2017-12-31T11:40:52.730Z,10.30
2017-12-31T11:43:20.350Z,10.30
2017-12-31T11:45:54.783Z,10.30
2017-12-31T11:48:23.691Z,10.30
2017-12-31T11:50:51.287Z,10.30
2017-12-31T11:53:18.930Z,10.30
2017-12-31T11:55:46.528Z,10.30
2017-12-31T11:58:14.145Z,10.40
2017-12-31T12:00:41.839Z,10.40
2017-12-31T12:03:09.437Z,10.40
2017-12-31T12:05:37.816Z,10.50
2017-12-31T12:08:06.221Z,10.60
2017-12-31T12:10:33.854Z,10.60
2017-12-31T12:13:02.239Z,10.70
2017-12-31T12:15:30.631Z,10.70
2017-12-31T12:17:58.251Z,10.70
2017-12-31T12:20:25.917Z,10.80
2017-12-31T12:22:53.548Z,10.80
2017-12-31T12:25:21.921Z,10.90
2017-12-31T12:27:49.536Z,10.80
2017-12-31T12:30:17.908Z,10.90
2017-12-31T12:32:46.331Z,11.00
2017-12-31T12:35:13.943Z,11.00
2017-12-31T12:37:41.550Z,10.90
2017-12-31T12:40:09.208Z,10.90
2017-12-31T12:42:36.847Z,10.90
2017-12-31T12:45:05.219Z,10.80
2017-12-31T12:47:33.603Z,10.90
2017-12-31T12:50:02.041Z,10.80
2017-12-31T12:52:29.633Z,10.80
2017-12-31T12:54:58.013Z,10.90
2017-12-31T12:57:26.404Z,10.90
2017-12-31T12:59:54.790Z,10.90
2017-12-31T13:02:22.413Z,10.90
2017-12-31T13:04:50.009Z,10.90
2017-12-31T13:07:17.717Z,11.00
2017-12-31T13:09:45.325Z,11.10
2017-12-31T13:12:12.927Z,11.10
2017-12-31T13:14:40.605Z,11.20
2017-12-31T13:17:08.205Z,11.30
2017-12-31T13:19:36.600Z,11.40
2017-12-31T13:22:04.200Z,11.40
2017-12-31T13:24:31.830Z,11.40
2017-12-31T13:26:59.429Z,11.30
2017-12-31T13:29:27.068Z,11.30
2017-12-31T13:31:54.714Z,11.40
2017-12-31T13:34:22.316Z,11.40
2017-12-31T13:36:49.924Z,11.50
2017-12-31T13:39:17.539Z,11.50
2017-12-31T13:41:45.133Z,11.40
2017-12-31T13:44:12.760Z,11.50
2017-12-31T13:46:40.360Z,11.40
2017-12-31T13:49:07.996Z,11.50
2017-12-31T13:51:36.361Z,11.50
2017-12-31T13:54:03.960Z,11.40
2017-12-31T13:56:31.736Z,11.50
2017-12-31T13:58:59.369Z,11.50
2017-12-31T14:01:27.736Z,11.50
2017-12-31T14:03:55.358Z,11.50
2017-12-31T14:06:23.728Z,11.50
2017-12-31T14:08:51.366Z,11.40
2017-12-31T14:11:18.981Z,11.40
2017-12-31T14:13:46.586Z,11.40
2017-12-31T14:16:14.188Z,11.30
2017-12-31T14:18:41.808Z,11.30
2017-12-31T14:21:09.474Z,11.20
2017-12-31T14:23:37.063Z,11.30
2017-12-31T14:26:05.459Z,11.20
2017-12-31T14:28:33.059Z,11.20
2017-12-31T14:31:00.692Z,11.20
2017-12-31T14:33:28.292Z,11.20
2017-12-31T14:35:55.973Z,11.20
2017-12-31T14:38:23.986Z,11.20
2017-12-31T14:40:51.611Z,11.20
2017-12-31T14:43:19.209Z,11.10
2017-12-31T14:45:46.792Z,11.10
2017-12-31T14:48:15.167Z,10.90
2017-12-31T14:50:43.571Z,10.90
2017-12-31T14:53:11.154Z,10.90
2017-12-31T14:55:38.843Z,10.90
2017-12-31T14:58:06.458Z,10.80
2017-12-31T15:00:34.046Z,10.80
2017-12-31T15:03:01.663Z,10.80
2017-12-31T15:05:29.263Z,10.80
2017-12-31T15:07:56.885Z,10.80
2017-12-31T15:10:24.554Z,10.70
2017-12-31T15:12:52.174Z,10.70
2017-12-31T15:15:19.779Z,10.60
2017-12-31T15:17:47.451Z,10.50
2017-12-31T15:20:15.065Z,10.50
2017-12-31T15:22:43.458Z,10.40
2017-12-31T15:25:11.815Z,10.30
2017-12-31T15:27:39.479Z,10.30
2017-12-31T15:30:07.069Z,10.20
2017-12-31T15:32:34.689Z,10.10
2017-12-31T15:35:02.293Z,10.10
2017-12-31T15:37:29.914Z,10.00
2017-12-31T15:39:57.513Z,10.00
2017-12-31T15:42:25.124Z,10.00
2017-12-31T15:44:52.712Z,9.90
2017-12-31T15:47:21.121Z,9.80
2017-12-31T15:49:48.747Z,9.80
2017-12-31T15:52:17.140Z,9.60
2017-12-31T15:54:45.505Z,9.50
2017-12-31T15:57:13.880Z,9.40
2017-12-31T15:59:41.486Z,9.40
2017-12-31T16:02:09.077Z,9.30
2017-12-31T16:04:36.702Z,9.20
2017-12-31T16:07:04.313Z,9.10
2017-12-31T16:09:31.938Z,9.00
2017-12-31T16:11:59.532Z,9.00
2017-12-31T16:14:27.296Z,8.90
2017-12-31T16:16:54.886Z,8.80
2017-12-31T16:19:23.251Z,8.60
2017-12-31T16:21:51.603Z,8.50
2017-12-31T16:24:19.292Z,8.50
2017-12-31T16:26:47.685Z,8.50
2017-12-31T16:29:16.051Z,8.60
2017-12-31T16:31:44.447Z,8.60
2017-12-31T16:34:12.036Z,8.60
2017-12-31T16:36:39.661Z,8.70
2017-12-31T16:39:08.042Z,8.70
2017-12-31T16:41:35.643Z,8.60
2017-12-31T16:44:03.239Z,8.60
2017-12-31T16:46:30.875Z,8.60
2017-12-31T16:48:58.541Z,8.50
2017-12-31T16:51:26.141Z,8.40
2017-12-31T16:53:54.502Z,8.20
2017-12-31T16:56:24.139Z,8.10
2017-12-31T16:58:51.783Z,8.10
2017-12-31T17:01:20.141Z,8.00
2017-12-31T17:03:48.600Z,7.90
2017-12-31T17:06:16.210Z,7.90
2017-12-31T17:08:43.894Z,7.80
2017-12-31T17:11:11.479Z,7.80
2017-12-31T17:13:39.120Z,7.70
2017-12-31T17:16:06.738Z,7.70
2017-12-31T17:18:35.158Z,7.50
2017-12-31T17:21:02.756Z,7.50
2017-12-31T17:23:30.386Z,7.50
2017-12-31T17:25:58.013Z,7.50
2017-12-31T17:28:25.625Z,7.40
2017-12-31T17:30:53.223Z,7.40
2017-12-31T17:33:21.613Z,7.30
2017-12-31T17:35:49.991Z,7.20
2017-12-31T17:38:18.363Z,7.10
2017-12-31T17:40:46.751Z,7.00
2017-12-31T17:43:15.116Z,6.90
2017-12-31T17:45:44.142Z,6.80
2017-12-31T17:48:14.829Z,6.80
2017-12-31T17:50:42.445Z,6.80
2017-12-31T17:53:10.081Z,6.70
2017-12-31T17:55:37.702Z,6.70
2017-12-31T17:58:05.328Z,6.70
2017-12-31T18:00:32.937Z,6.60
2017-12-31T18:03:00.618Z,6.60
2017-12-31T18:05:28.991Z,6.60
2017-12-31T18:07:57.398Z,6.50
2017-12-31T18:10:25.027Z,6.50
2017-12-31T18:12:53.412Z,6.50
2017-12-31T18:15:21.813Z,6.50
2017-12-31T18:17:49.408Z,6.40
2017-12-31T18:20:17.038Z,6.50
2017-12-31T18:22:44.644Z,6.40
2017-12-31T18:25:12.262Z,6.40
2017-12-31T18:27:39.896Z,6.30
2017-12-31T18:30:08.265Z,6.20
2017-12-31T18:32:36.683Z,6.20
2017-12-31T18:35:05.983Z,6.20
2017-12-31T18:37:33.568Z,6.20
2017-12-31T18:40:01.174Z,6.10
2017-12-31T18:42:29.566Z,6.10
2017-12-31T18:44:57.164Z,6.10
2017-12-31T18:47:25.541Z,6.10
2017-12-31T18:49:53.168Z,6.10
2017-12-31T18:52:20.796Z,6.10
2017-12-31T18:54:48.431Z,6.20
2017-12-31T18:57:16.297Z,6.10
2017-12-31T18:59:43.922Z,6.10
2017-12-31T19:02:11.548Z,6.10
2017-12-31T19:04:39.937Z,6.00
2017-12-31T19:07:08.308Z,6.00
2017-12-31T19:09:36.703Z,6.00
2017-12-31T19:12:04.317Z,6.00
2017-12-31T19:14:31.949Z,6.00
2017-12-31T19:16:59.544Z,6.10
2017-12-31T19:19:27.217Z,6.10
2017-12-31T19:21:54.853Z,6.10
2017-12-31T19:24:22.464Z,6.10
2017-12-31T19:26:50.868Z,6.10
2017-12-31T19:31:46.107Z,6.10
2017-12-31T19:34:14.219Z,6.10
2017-12-31T19:36:41.872Z,6.10
2017-12-31T19:39:09.476Z,6.10
2017-12-31T19:41:37.092Z,6.00
2017-12-31T19:44:04.711Z,6.00
2017-12-31T19:46:32.344Z,6.00
2017-12-31T19:48:59.937Z,6.00
2017-12-31T19:51:27.550Z,6.00
2017-12-31T19:53:55.914Z,6.00
2017-12-31T19:56:23.545Z,6.00
2017-12-31T19:58:51.141Z,6.00
2017-12-31T20:01:18.756Z,6.00
2017-12-31T20:03:46.385Z,6.00
2017-12-31T20:06:14.757Z,5.90
2017-12-31T20:08:43.152Z,5.90
2017-12-31T20:11:10.749Z,5.90
2017-12-31T20:13:38.385Z,5.80
2017-12-31T20:16:06.083Z,5.80
2017-12-31T20:18:33.715Z,5.80
2017-12-31T20:21:01.328Z,5.70
2017-12-31T20:23:29.705Z,5.70
2017-12-31T20:25:57.325Z,5.70
2017-12-31T20:28:24.924Z,5.70
2017-12-31T20:30:52.578Z,5.70
2017-12-31T20:33:20.149Z,5.60
2017-12-31T20:35:48.550Z,5.50
2017-12-31T20:38:16.214Z,5.50
2017-12-31T20:40:43.845Z,5.50
2017-12-31T20:43:11.445Z,5.50
2017-12-31T20:45:39.068Z,5.40
2017-12-31T20:48:06.700Z,5.40
2017-12-31T20:50:34.324Z,5.40
2017-12-31T20:53:01.933Z,5.40
2017-12-31T20:55:29.631Z,5.40
2017-12-31T20:57:58.004Z,5.30
2017-12-31T21:00:26.387Z,5.30
2017-12-31T21:02:54.758Z,5.30
2017-12-31T21:05:23.761Z,5.30
2017-12-31T21:07:52.150Z,5.20
2017-12-31T21:10:19.776Z,5.20
2017-12-31T21:12:47.370Z,5.20
2017-12-31T21:15:15.005Z,5.30
2017-12-31T21:17:42.603Z,5.30
2017-12-31T21:20:10.236Z,5.30
2017-12-31T21:22:38.630Z,5.30
2017-12-31T21:25:06.251Z,5.20
2017-12-31T21:27:33.867Z,5.20
2017-12-31T21:30:01.457Z,5.20
2017-12-31T21:32:30.057Z,5.20
2017-12-31T21:34:57.662Z,5.20
2017-12-31T21:37:25.277Z,5.20
2017-12-31T21:39:52.874Z,5.30
2017-12-31T21:42:22.162Z,5.20
2017-12-31T21:44:50.533Z,5.30
2017-12-31T21:47:18.936Z,5.30
2017-12-31T21:49:46.617Z,5.30
2017-12-31T21:52:14.210Z,5.40
2017-12-31T21:54:41.836Z,5.40
2017-12-31T21:57:09.439Z,5.40
2017-12-31T21:59:37.064Z,5.50
2017-12-31T22:02:04.654Z,5.50
2017-12-31T22:04:32.289Z,5.50
2017-12-31T22:06:59.907Z,5.50
2017-12-31T22:09:28.465Z,5.50
2017-12-31T22:11:56.101Z,5.40
2017-12-31T22:14:23.736Z,5.40
2017-12-31T22:16:51.335Z,5.40
2017-12-31T22:19:18.977Z,5.40
2017-12-31T22:21:46.591Z,5.40
2017-12-31T22:24:14.985Z,5.40
2017-12-31T22:26:42.585Z,5.40
2017-12-31T22:29:10.206Z,5.40
2017-12-31T22:31:37.852Z,5.50
2017-12-31T22:34:06.238Z,5.70
2017-12-31T22:36:34.624Z,5.70
2017-12-31T22:39:02.221Z,5.70
2017-12-31T22:41:29.848Z,5.80
2017-12-31T22:43:57.456Z,5.70
2017-12-31T22:48:59.241Z,5.70
2017-12-31T22:51:26.862Z,5.60
2017-12-31T22:53:54.653Z,5.60
2017-12-31T22:56:23.028Z,5.50
2017-12-31T22:58:50.731Z,5.50
2017-12-31T23:01:19.122Z,5.40
2017-12-31T23:03:47.516Z,5.50
2017-12-31T23:06:15.162Z,5.50
2017-12-31T23:08:43.559Z,5.50
2017-12-31T23:11:11.163Z,5.50
2017-12-31T23:13:39.549Z,5.50
2017-12-31T23:16:07.166Z,5.50
2017-12-31T23:18:34.817Z,5.40
2017-12-31T23:21:02.421Z,5.50
2017-12-31T23:23:30.044Z,5.40
2017-12-31T23:25:57.679Z,5.40
2017-12-31T23:28:26.070Z,5.30
2017-12-31T23:30:53.699Z,5.30
2017-12-31T23:33:21.309Z,5.30
2017-12-31T23:35:48.940Z,5.20
2017-12-31T23:38:17.426Z,5.20
2017-12-31T23:40:45.057Z,5.20
2017-12-31T23:43:12.678Z,5.30
2017-12-31T23:45:40.270Z,5.60
2017-12-31T23:48:07.906Z,5.70
2017-12-31T23:50:35.566Z,5.90
2017-12-31T23:53:03.180Z,6.10
2017-12-31T23:55:31.544Z,6.50
2017-12-31T23:57:59.133Z,6.40
